Time;durP1;ratioP1;P1;durP2;ratioP2;P2;SDS_P1;SDS_P2;PMS_P1;PMS_P2;Temp;Humidity;BMP_temperature;BMP_pressure;BME280_temperature;BME280_humidity;BME280_pressure;Samples;Min_cycle;Max_cycle;Signal;HPM_P1;HPM_P2
2024/01/08 00:01:30;;;;;;;16.50;6.88;;;;;;;-11.73;100.00;103762.69;5075823;28;20078;-71
2024/01/08 00:03:56;;;;;;;47.33;14.05;;;;;;;-11.78;100.00;103768.69;5088334;28;20032;-72
2024/01/08 00:06:22;;;;;;;57.33;14.25;;;;;;;-11.80;100.00;103760.88;5088118;28;20089;-71
2024/01/08 00:08:49;;;;;;;39.47;11.88;;;;;;;-11.75;100.00;103761.81;5071907;28;20069;-72
2024/01/08 00:11:16;;;;;;;34.85;9.40;;;;;;;-11.74;100.00;103776.53;5087762;28;20040;-72
2024/01/08 00:13:42;;;;;;;10.48;5.43;;;;;;;-11.79;100.00;103774.72;5108984;28;20020;-71
2024/01/08 00:16:07;;;;;;;10.02;5.43;;;;;;;-11.85;100.00;103770.38;5096617;28;20081;-71
2024/01/08 00:18:34;;;;;;;11.43;5.18;;;;;;;-11.87;100.00;103762.56;5074008;28;20123;-71
2024/01/08 00:21:02;;;;;;;16.08;5.93;;;;;;;-12.16;100.00;103715.50;5073036;28;20428;-71
2024/01/08 00:23:29;;;;;;;14.13;6.22;;;;;;;-12.07;100.00;103743.28;5090439;28;20478;-70
2024/01/08 00:25:54;;;;;;;12.07;5.00;;;;;;;-12.18;100.00;103747.50;5089195;28;20040;-71
2024/01/08 00:28:20;;;;;;;10.80;4.80;;;;;;;-12.26;100.00;103733.53;5071382;28;20085;-72
2024/01/08 00:30:45;;;;;;;9.18;5.15;;;;;;;-12.22;100.00;103745.69;5088045;28;20078;-71
2024/01/08 00:33:11;;;;;;;11.85;5.30;;;;;;;-12.19;100.00;103750.91;5087716;28;20573;-70
2024/01/08 00:35:37;;;;;;;10.02;5.25;;;;;;;-12.24;100.00;103763.84;5072786;28;20032;-71
2024/01/08 00:38:02;;;;;;;10.80;5.38;;;;;;;-12.43;100.00;103757.53;5106209;28;20424;-70
2024/01/08 00:40:29;;;;;;;9.55;5.05;;;;;;;-12.28;100.00;103779.34;5089303;28;20053;-70
2024/01/08 00:42:55;;;;;;;8.70;4.78;;;;;;;-12.32;100.00;103776.69;5094376;28;20048;-71
2024/01/08 00:45:20;;;;;;;7.90;4.50;;;;;;;-12.29;100.00;103781.06;5093621;28;20101;-71
2024/01/08 00:47:46;;;;;;;10.90;4.68;;;;;;;-12.29;100.00;103762.03;5092955;28;20486;-72
2024/01/08 00:50:13;;;;;;;9.65;4.43;;;;;;;-12.35;100.00;103761.13;5093027;28;20028;-71
2024/01/08 00:52:39;;;;;;;7.75;4.55;;;;;;;-12.38;100.00;103766.28;5076963;28;20028;-71
2024/01/08 00:55:05;;;;;;;9.73;4.47;;;;;;;-12.48;100.00;103737.56;5110257;28;20194;-70
2024/01/08 00:57:34;;;;;;;9.38;4.70;;;;;;;-12.41;100.00;103755.84;5093773;28;20035;-71
2024/01/08 01:00:00;;;;;;;10.07;4.65;;;;;;;-12.68;100.00;103713.94;5092707;28;20035;-71
2024/01/08 01:02:26;;;;;;;7.80;4.28;;;;;;;-12.54;100.00;103746.16;5094207;28;20482;-71
2024/01/08 01:04:51;;;;;;;9.02;4.28;;;;;;;-12.63;100.00;103733.06;5093018;28;20428;-71
2024/01/08 01:07:16;;;;;;;8.40;4.72;;;;;;;-12.69;100.00;103739.00;5092441;28;20502;-71
2024/01/08 01:09:42;;;;;;;10.75;4.63;;;;;;;-12.52;100.00;103762.59;5092795;28;20080;-71
2024/01/08 01:12:08;;;;;;;10.05;5.40;;;;;;;-12.69;100.00;103732.97;5093639;28;20092;-71
2024/01/08 01:14:34;;;;;;;9.88;4.68;;;;;;;-12.46;100.00;103773.06;5093536;28;20073;-71
2024/01/08 01:16:59;;;;;;;9.10;4.80;;;;;;;-12.45;100.00;103777.38;5094323;28;20040;-71
2024/01/08 01:19:24;;;;;;;9.25;4.78;;;;;;;-12.42;100.00;103789.53;5095309;28;20109;-71
2024/01/08 01:21:50;;;;;;;7.90;4.80;;;;;;;-12.45;100.00;103797.28;5093053;28;20664;-71
2024/01/08 01:24:15;;;;;;;8.73;4.63;;;;;;;-12.51;100.00;103792.00;5091734;28;20203;-71
2024/01/08 01:26:47;;;;;;;12.38;4.80;;;;;;;-12.48;100.00;103807.59;5074975;28;20067;-71
2024/01/08 01:29:12;;;;;;;10.45;4.65;;;;;;;-12.50;100.00;103810.19;5093066;28;20119;-71
2024/01/08 01:31:38;;;;;;;11.95;4.90;;;;;;;-12.50;100.00;103819.69;5093008;28;20198;-71
2024/01/08 01:34:04;;;;;;;11.48;5.15;;;;;;;-12.64;100.00;103788.38;5074520;28;20040;-71
2024/01/08 01:36:34;;;;;;;8.32;4.70;;;;;;;-12.77;100.00;103783.84;5078686;28;20540;-70
2024/01/08 01:39:00;;;;;;;9.50;4.90;;;;;;;-12.59;100.00;103823.88;5071294;28;20070;-71
2024/01/08 01:41:25;;;;;;;8.57;4.35;;;;;;;-12.65;100.00;103817.72;5071446;28;20036;-71
2024/01/08 01:43:51;;;;;;;8.10;4.28;;;;;;;-12.60;100.00;103810.91;5071388;28;20041;-71
2024/01/08 01:46:33;;;;;;;7.82;4.22;;;;;;;-12.69;100.00;103814.22;5072700;28;20071;-71
2024/01/08 01:48:58;;;;;;;9.88;4.53;;;;;;;-12.99;100.00;103788.69;5071122;28;20039;-71
2024/01/08 01:51:24;;;;;;;8.57;4.68;;;;;;;-12.98;100.00;103802.50;5053992;28;20033;-70
2024/01/08 01:53:49;;;;;;;8.93;4.93;;;;;;;-13.06;100.00;103797.22;5054451;28;20033;-71
2024/01/08 01:56:15;;;;;;;9.45;5.05;;;;;;;-13.02;100.00;103814.53;5072427;28;20028;-71
2024/01/08 01:58:42;;;;;;;8.40;4.53;;;;;;;-12.92;100.00;103839.78;5054509;28;20487;-70
2024/01/08 02:01:07;;;;;;;7.00;4.32;;;;;;;-12.94;100.00;103836.28;5054453;28;20029;-71
2024/01/08 02:03:33;;;;;;;13.40;5.28;;;;;;;-13.08;100.00;103817.03;5054893;28;20513;-70
2024/01/08 02:05:59;;;;;;;7.82;4.60;;;;;;;-12.85;100.00;103833.84;5054720;28;20085;-72
2024/01/08 02:08:24;;;;;;;9.10;4.50;;;;;;;-12.86;100.00;103839.88;5054976;28;20387;-70
2024/01/08 02:10:51;;;;;;;9.55;4.95;;;;;;;-12.84;100.00;103847.69;5070977;28;20433;-71
2024/01/08 02:13:17;;;;;;;10.98;5.07;;;;;;;-12.81;100.00;103851.22;5071896;28;20521;-70
2024/01/08 02:15:42;;;;;;;9.45;5.30;;;;;;;-12.80;100.00;103852.06;5072586;28;20041;-70
2024/01/08 02:18:08;;;;;;;13.10;5.60;;;;;;;-12.70;100.00;103850.50;5070762;28;20029;-70
2024/01/08 02:20:33;;;;;;;9.95;5.82;;;;;;;-12.68;100.00;103844.50;5088199;28;20040;-70
2024/01/08 02:22:59;;;;;;;10.13;5.30;;;;;;;-12.72;100.00;103837.50;5072134;28;20067;-70
2024/01/08 02:25:26;;;;;;;11.63;4.85;;;;;;;-12.78;100.00;103840.00;5054745;28;20517;-71
2024/01/08 02:27:52;;;;;;;10.50;4.97;;;;;;;-12.81;100.00;103838.25;5089132;28;20025;-71
2024/01/08 02:30:18;;;;;;;9.25;4.68;;;;;;;-12.76;100.00;103838.31;5071699;28;20032;-71
2024/01/08 02:32:44;;;;;;;9.50;4.55;;;;;;;-12.73;100.00;103842.69;5070390;28;20036;-70
2024/01/08 02:35:10;;;;;;;8.68;5.00;;;;;;;-12.90;100.00;103809.56;5070603;28;20391;-71
2024/01/08 02:37:35;;;;;;;8.88;5.15;;;;;;;-12.73;100.00;103842.69;5070507;28;20084;-71
2024/01/08 02:40:01;;;;;;;8.80;5.07;;;;;;;-12.72;100.00;103836.63;5087385;28;20032;-70
2024/01/08 02:42:26;;;;;;;9.02;5.15;;;;;;;-12.75;100.00;103832.25;5053285;28;20605;-70
2024/01/08 02:44:52;;;;;;;10.38;4.70;;;;;;;-12.86;100.00;103839.00;5087336;28;20052;-70
2024/01/08 02:47:17;;;;;;;8.63;4.10;;;;;;;-12.96;100.00;103831.94;5053254;28;20025;-69
2024/01/08 02:49:42;;;;;;;8.95;4.88;;;;;;;-12.95;100.00;103834.53;5070425;28;20490;-70
2024/01/08 02:52:08;;;;;;;10.52;5.35;;;;;;;-12.91;100.00;103835.44;5069965;28;20498;-71
2024/01/08 02:54:33;;;;;;;9.63;4.97;;;;;;;-13.09;100.00;103816.16;5087636;28;20032;-70
2024/01/08 02:56:59;;;;;;;9.93;4.72;;;;;;;-12.95;100.00;103839.72;5087138;28;20033;-70
2024/01/08 02:59:26;;;;;;;9.07;4.63;;;;;;;-13.00;100.00;103854.34;5070726;28;20058;-71
2024/01/08 03:01:51;;;;;;;7.43;4.57;;;;;;;-13.01;100.00;103857.78;5054044;28;20134;-71
2024/01/08 03:04:22;;;;;;;8.73;4.38;;;;;;;-13.01;100.00;103847.41;5069021;28;20072;-71
2024/01/08 03:06:49;;;;;;;8.95;4.97;;;;;;;-13.05;100.00;103843.88;5070119;28;20052;-70
2024/01/08 03:09:14;;;;;;;10.35;4.93;;;;;;;-13.05;100.00;103845.59;5070631;28;20021;-71
2024/01/08 03:11:40;;;;;;;8.13;4.63;;;;;;;-13.04;100.00;103842.19;5053791;28;20090;-70
2024/01/08 03:14:05;;;;;;;7.68;4.20;;;;;;;-12.97;100.00;103858.72;5070943;28;20036;-71
2024/01/08 03:16:30;;;;;;;7.78;4.30;;;;;;;-12.98;100.00;103856.94;5071177;28;20040;-71
2024/01/08 03:19:02;;;;;;;6.75;3.95;;;;;;;-12.96;100.00;103857.84;5053456;28;20036;-71
2024/01/08 03:21:27;;;;;;;7.75;4.07;;;;;;;-13.03;100.00;103843.91;5087184;28;20031;-70
2024/01/08 03:23:52;;;;;;;8.93;4.68;;;;;;;-12.88;100.00;103872.69;5089958;28;20029;-71
2024/01/08 03:26:18;;;;;;;8.20;4.18;;;;;;;-12.88;100.00;103864.91;5078510;28;20054;-71
2024/01/08 03:28:44;;;;;;;7.82;4.57;;;;;;;-12.87;100.00;103870.97;5069719;28;20032;-71
2024/01/08 03:31:09;;;;;;;10.68;4.85;;;;;;;-12.87;100.00;103873.56;5069535;28;20032;-70
2024/01/08 03:33:35;;;;;;;10.13;4.53;;;;;;;-13.04;100.00;103834.41;5052304;28;20123;-70
2024/01/08 03:36:01;;;;;;;7.72;3.78;;;;;;;-12.76;100.00;103886.72;5070080;28;20058;-71
2024/01/08 03:38:28;;;;;;;8.30;4.35;;;;;;;-12.79;100.00;103885.78;5070822;28;20150;-71
2024/01/08 03:40:55;;;;;;;6.55;4.20;;;;;;;-12.94;100.00;103862.22;5070772;28;20370;-71
2024/01/08 03:43:20;;;;;;;7.20;3.80;;;;;;;-12.79;100.00;103885.78;5070219;28;20029;-70
2024/01/08 03:45:46;;;;;;;5.82;3.67;;;;;;;-12.87;100.00;103877.03;5069736;28;20082;-71
2024/01/08 03:48:11;;;;;;;6.78;4.10;;;;;;;-12.89;100.00;103880.44;5069000;28;20032;-71
2024/01/08 03:50:38;;;;;;;9.52;4.10;;;;;;;-12.87;100.00;103890.00;5069378;28;20038;-71
2024/01/08 03:53:03;;;;;;;8.02;4.28;;;;;;;-12.80;100.00;103901.34;5052203;28;20040;-71
2024/01/08 03:55:30;;;;;;;6.57;4.00;;;;;;;-12.74;100.00;103905.78;5069815;28;20033;-71
2024/01/08 03:57:56;;;;;;;7.53;3.92;;;;;;;-12.71;100.00;103901.50;5070130;28;20032;-71
2024/01/08 04:00:21;;;;;;;9.95;4.75;;;;;;;-12.61;100.00;103907.72;5053171;28;20036;-70
2024/01/08 04:02:47;;;;;;;8.07;4.20;;;;;;;-12.59;100.00;103906.00;5086623;28;20166;-71
2024/01/08 04:05:12;;;;;;;6.50;3.70;;;;;;;-12.62;100.00;103906.81;5070100;28;20529;-71
2024/01/08 04:07:38;;;;;;;7.15;3.65;;;;;;;-12.63;100.00;103904.22;5053399;28;20045;-71
2024/01/08 04:10:04;;;;;;;5.93;3.60;;;;;;;-12.64;100.00;103900.75;5052975;28;20036;-71
2024/01/08 04:12:30;;;;;;;8.65;4.10;;;;;;;-12.63;100.00;103902.50;5077248;28;20036;-71
2024/01/08 04:14:55;;;;;;;8.32;4.18;;;;;;;-12.67;100.00;103890.34;5092658;28;20028;-71
2024/01/08 04:17:20;;;;;;;7.20;3.58;;;;;;;-12.64;100.00;103898.16;5078588;28;20029;-70
2024/01/08 04:19:46;;;;;;;7.82;3.75;;;;;;;-12.64;100.00;103892.97;5090541;28;20032;-71
2024/01/08 04:22:11;;;;;;;5.70;3.58;;;;;;;-12.81;100.00;103860.72;5057256;28;20032;-71
2024/01/08 04:24:36;;;;;;;8.30;4.55;;;;;;;-12.89;100.00;103860.56;5056750;28;20099;-70
2024/01/08 04:27:03;;;;;;;7.50;3.80;;;;;;;-12.59;100.00;103900.81;5072977;28;20394;-71
2024/01/08 04:29:28;;;;;;;6.30;3.55;;;;;;;-12.51;100.00;103917.41;5073333;28;20111;-70
2024/01/08 04:31:54;;;;;;;7.72;4.10;;;;;;;-12.52;100.00;103917.34;5072809;28;20120;-70
2024/01/08 04:34:19;;;;;;;7.07;4.30;;;;;;;-12.53;100.00;103915.63;5073196;28;20045;-70
2024/01/08 04:36:44;;;;;;;7.07;4.15;;;;;;;-12.52;100.00;103909.56;5056149;28;20039;-70
2024/01/08 04:39:10;;;;;;;9.25;3.78;;;;;;;-12.53;100.00;103900.06;5055417;28;20402;-70
2024/01/08 04:41:35;;;;;;;8.32;4.10;;;;;;;-12.56;100.00;103906.94;5056026;28;20036;-70
2024/01/08 04:44:01;;;;;;;7.90;4.30;;;;;;;-12.65;100.00;103892.94;5072315;28;20024;-71
2024/01/08 04:46:28;;;;;;;8.80;4.47;;;;;;;-12.53;100.00;103911.31;5073111;28;20024;-71
2024/01/08 04:48:53;;;;;;;6.78;3.60;;;;;;;-12.49;100.00;103912.22;5072995;28;20024;-70
2024/01/08 04:51:22;;;;;;;7.97;4.10;;;;;;;-12.49;100.00;103912.22;5057075;28;20391;-71
2024/01/08 04:53:50;;;;;;;15.27;4.38;;;;;;;-12.50;100.00;103906.16;5074472;28;20082;-70
2024/01/08 04:56:23;;;;;;;10.57;4.30;;;;;;;-12.48;100.00;103909.66;5057654;28;20056;-71
2024/01/08 04:58:50;;;;;;;7.90;4.35;;;;;;;-12.46;100.00;103913.13;5073263;28;20028;-70
2024/01/08 05:01:17;;;;;;;7.95;4.32;;;;;;;-12.46;100.00;103905.34;5055392;28;20459;-70
2024/01/08 05:03:43;;;;;;;8.93;4.25;;;;;;;-12.60;100.00;103888.72;5089484;28;20104;-71
2024/01/08 05:06:09;;;;;;;16.13;5.25;;;;;;;-12.47;100.00;103920.91;5055407;28;20029;-70
2024/01/08 05:08:35;;;;;;;24.80;5.32;;;;;;;-12.46;100.00;103926.13;5072937;28;20035;-70
2024/01/08 05:11:00;;;;;;;15.07;5.18;;;;;;;-12.43;100.00;103930.50;5072122;28;20024;-70
2024/01/08 05:13:25;;;;;;;30.38;5.32;;;;;;;-12.41;100.00;103921.88;5089577;28;20498;-70
2024/01/08 05:15:51;;;;;;;19.40;5.68;;;;;;;-12.45;100.00;103904.50;5074009;28;20532;-71
2024/01/08 05:18:16;;;;;;;18.02;5.10;;;;;;;-12.35;100.00;103919.41;5088226;28;20507;-71
2024/01/08 05:20:42;;;;;;;33.05;5.95;;;;;;;-12.27;100.00;103916.03;5055101;28;20483;-70
2024/01/08 05:23:07;;;;;;;15.50;5.30;;;;;;;-12.17;100.00;103920.53;5072488;28;20020;-71
2024/01/08 05:25:37;;;;;;;61.88;6.88;;;;;;;-12.11;100.00;103910.25;5071755;28;20121;-71
2024/01/08 05:28:05;;;;;;;24.45;5.78;;;;;;;-12.05;100.00;103915.53;5070518;28;20068;-71
2024/01/08 05:30:30;;;;;;;44.55;8.38;;;;;;;-12.07;100.00;103896.44;5060372;28;20029;-71
2024/01/08 05:32:56;;;;;;;15.95;6.03;;;;;;;-11.95;100.00;103907.00;5061480;28;20162;-70
2024/01/08 05:35:24;;;;;;;13.02;4.60;;;;;;;-11.93;100.00;103907.88;5078003;28;20039;-71
2024/01/08 05:37:50;;;;;;;33.38;6.68;;;;;;;-11.92;100.00;103904.47;5074555;28;20025;-71
2024/01/08 05:40:15;;;;;;;29.52;6.30;;;;;;;-11.81;100.00;103901.97;5054526;28;20120;-71
2024/01/08 05:42:40;;;;;;;9.68;5.63;;;;;;;-12.09;100.00;103843.63;5055009;28;20024;-71
2024/01/08 05:45:09;;;;;;;20.38;5.88;;;;;;;-11.71;100.00;103900.38;5072695;28;20029;-72
2024/01/08 05:47:35;;;;;;;22.33;5.90;;;;;;;-11.68;100.00;103909.06;5039402;28;20038;-71
2024/01/08 05:50:03;;;;;;;14.07;6.57;;;;;;;-11.66;100.00;103917.75;5054487;28;20024;-71
2024/01/08 05:52:29;;;;;;;24.48;6.95;;;;;;;-11.68;100.00;103911.66;5072357;28;20047;-71
2024/01/08 05:54:56;;;;;;;39.05;7.13;;;;;;;-11.79;100.00;103897.66;5038643;28;20028;-71
2024/01/08 05:57:21;;;;;;;37.00;6.75;;;;;;;-11.53;100.00;103923.97;5070237;28;20029;-70
2024/01/08 05:59:48;;;;;;;48.22;10.90;;;;;;;-11.47;100.00;103921.44;5071702;28;20044;-71
2024/01/08 06:02:13;;;;;;;20.15;6.53;;;;;;;-11.42;100.00;103922.41;5055620;28;20029;-71
2024/01/08 06:04:39;;;;;;;26.65;6.80;;;;;;;-11.43;100.00;103911.97;5072186;28;20020;-71
2024/01/08 06:07:04;;;;;;;24.90;9.38;;;;;;;-11.30;100.00;103920.78;5053761;28;20128;-71
2024/01/08 06:09:30;;;;;;;20.08;9.73;;;;;;;-11.25;100.00;103916.53;5069740;28;20028;-71
2024/01/08 06:11:55;;;;;;;24.20;11.80;;;;;;;-11.21;100.00;103907.91;5069837;28;20119;-71
2024/01/08 06:14:21;;;;;;;25.55;7.75;;;;;;;-11.38;100.00;103869.59;5036169;28;20074;-71
2024/01/08 06:16:47;;;;;;;14.65;7.07;;;;;;;-11.10;100.00;103900.22;5069334;28;20068;-71
2024/01/08 06:19:12;;;;;;;45.22;13.98;;;;;;;-11.10;100.00;103889.81;5071254;28;20028;-71
2024/01/08 06:21:38;;;;;;;43.53;13.25;;;;;;;-11.19;100.00;103859.38;5054183;28;20040;-70
2024/01/08 06:24:03;;;;;;;28.08;9.77;;;;;;;-11.18;100.00;103845.53;5054268;28;20035;-71
2024/01/08 06:26:30;;;;;;;35.70;10.82;;;;;;;-10.92;100.00;103885.66;5072372;28;20032;-71
2024/01/08 06:28:56;;;;;;;35.28;7.82;;;;;;;-10.93;100.00;103862.22;5054645;28;20024;-71
2024/01/08 06:31:21;;;;;;;74.32;10.98;;;;;;;-10.86;100.00;103868.34;5053972;28;20048;-71
2024/01/08 06:33:46;;;;;;;22.73;6.93;;;;;;;-10.83;100.00;103863.19;5070818;28;20620;-71
2024/01/08 06:36:12;;;;;;;23.25;6.78;;;;;;;-10.89;100.00;103851.88;5070898;28;20032;-71
2024/01/08 06:38:37;;;;;;;12.80;6.00;;;;;;;-10.69;100.00;103874.59;5071801;28;20498;-71
2024/01/08 06:41:03;;;;;;;26.50;7.07;;;;;;;-10.85;100.00;103844.13;5072299;28;20435;-71
2024/01/08 06:43:28;;;;;;;30.05;7.30;;;;;;;-10.67;100.00;103872.88;5071483;28;20036;-71
2024/01/08 06:45:54;;;;;;;27.88;7.00;;;;;;;-10.62;100.00;103881.59;5071318;28;20048;-71
2024/01/08 06:48:20;;;;;;;16.92;6.80;;;;;;;-10.57;100.00;103882.50;5054551;28;20028;-71
2024/01/08 06:50:45;;;;;;;15.52;6.68;;;;;;;-10.51;100.00;103882.53;5074830;28;20028;-72
2024/01/08 06:53:12;;;;;;;14.82;6.65;;;;;;;-10.45;100.00;103882.59;5059874;28;20027;-71
2024/01/08 06:55:37;;;;;;;12.02;6.13;;;;;;;-10.52;100.00;103857.38;5070781;28;20057;-71
2024/01/08 06:58:03;;;;;;;13.55;6.35;;;;;;;-10.54;100.00;103846.09;5072000;28;20068;-71
2024/01/08 07:00:29;;;;;;;15.00;6.30;;;;;;;-10.29;100.00;103872.31;5071835;28;20032;-71
2024/01/08 07:02:55;;;;;;;20.15;5.93;;;;;;;-10.34;100.00;103842.75;5070975;28;20550;-71
2024/01/08 07:05:20;;;;;;;18.88;6.72;;;;;;;-10.30;100.00;103844.50;5070449;28;20565;-71
2024/01/08 07:07:45;;;;;;;14.25;7.70;;;;;;;-10.11;100.00;103874.13;5070466;28;20028;-71
2024/01/08 07:10:11;;;;;;;16.02;8.43;;;;;;;-10.11;100.00;103874.97;5069998;28;20032;-71
2024/01/08 07:12:36;;;;;;;23.90;8.43;;;;;;;-10.07;100.00;103879.34;5053936;28;20136;-70
2024/01/08 07:15:03;;;;;;;22.65;11.05;;;;;;;-10.02;100.00;103876.78;5070072;28;20040;-71
2024/01/08 07:17:30;;;;;;;21.77;11.88;;;;;;;-9.98;100.00;103875.91;5070191;28;20039;-71
2024/01/08 07:19:55;;;;;;;90.43;53.60;;;;;;;-9.96;100.00;103882.91;5053686;28;20028;-71
2024/01/08 07:22:21;;;;;;;42.47;14.30;;;;;;;-9.93;100.00;103882.03;5069687;28;20127;-71
2024/01/08 07:24:46;;;;;;;17.73;8.38;;;;;;;-9.87;100.00;103884.66;5053388;28;20036;-71
2024/01/08 07:27:11;;;;;;;17.08;7.82;;;;;;;-9.95;100.00;103868.13;5071283;28;20032;-71
2024/01/08 07:29:37;;;;;;;16.75;8.02;;;;;;;-9.76;100.00;103902.97;5071803;28;20086;-71
2024/01/08 07:32:03;;;;;;;20.08;9.43;;;;;;;-9.73;100.00;103906.47;5070287;28;20466;-71
2024/01/08 07:34:29;;;;;;;30.42;11.07;;;;;;;-9.70;100.00;103906.47;5036725;28;20053;-71
2024/01/08 07:36:55;;;;;;;19.15;9.10;;;;;;;-9.71;100.00;103906.47;5070245;28;20185;-70
2024/01/08 07:39:20;;;;;;;13.35;7.18;;;;;;;-9.76;100.00;103888.22;5087170;28;20538;-70
2024/01/08 07:41:46;;;;;;;16.13;8.10;;;;;;;-9.59;100.00;103918.69;5053680;28;20081;-70
2024/01/08 07:44:11;;;;;;;14.43;8.60;;;;;;;-9.57;100.00;103916.94;5070265;28;20073;-70
2024/01/08 07:46:36;;;;;;;17.60;9.38;;;;;;;-9.55;100.00;103915.22;5053400;28;20064;-71
2024/01/08 07:49:03;;;;;;;15.05;8.90;;;;;;;-9.53;100.00;103914.38;5070064;28;20032;-71
2024/01/08 07:51:28;;;;;;;17.25;9.13;;;;;;;-9.53;100.00;103916.13;5057036;28;20037;-70
2024/01/08 07:53:54;;;;;;;16.55;9.13;;;;;;;-9.60;100.00;103896.06;5074738;28;20113;-72
2024/01/08 07:56:27;;;;;;;25.90;16.10;;;;;;;-9.54;100.00;103912.59;5057240;28;20522;-71
2024/01/08 07:58:53;;;;;;;76.18;48.88;;;;;;;-9.48;100.00;103920.47;5057730;28;20036;-71
2024/01/08 08:01:18;;;;;;;20.83;13.57;;;;;;;-9.43;100.00;103917.91;5073800;28;20839;-71
2024/01/08 08:03:43;;;;;;;49.53;26.58;;;;;;;-9.38;100.00;103917.91;5039959;28;20520;-72
2024/01/08 08:06:09;;;;;;;25.58;15.00;;;;;;;-9.34;100.00;103922.25;5073918;28;20047;-71
2024/01/08 08:08:34;;;;;;;15.98;9.23;;;;;;;-9.30;100.00;103922.28;5073594;28;20036;-71
2024/01/08 08:11:02;;;;;;;13.30;8.75;;;;;;;-9.25;100.00;103927.50;5057067;28;20024;-71
2024/01/08 08:13:27;;;;;;;14.02;7.63;;;;;;;-9.38;100.00;103915.28;5059041;28;20024;-71
2024/01/08 08:15:53;;;;;;;13.57;7.63;;;;;;;-9.26;100.00;103931.84;5075291;28;20036;-71
2024/01/08 08:18:18;;;;;;;13.85;6.97;;;;;;;-9.16;100.00;103937.97;5074521;28;20035;-70
2024/01/08 08:20:57;;;;;;;12.50;6.45;;;;;;;-9.11;100.00;103944.06;5073528;28;20036;-70
2024/01/08 08:23:26;;;;;;;14.25;7.43;;;;;;;-9.09;100.00;103951.91;5057518;28;20031;-71
2024/01/08 08:25:51;;;;;;;14.18;7.32;;;;;;;-9.10;100.00;103945.81;5040097;28;20119;-71
2024/01/08 08:28:17;;;;;;;15.52;7.47;;;;;;;-9.19;100.00;103942.31;5073357;28;20111;-72
2024/01/08 08:30:42;;;;;;;15.73;8.90;;;;;;;-9.25;100.00;103941.41;5073338;28;20039;-71
2024/01/08 08:33:07;;;;;;;16.38;9.40;;;;;;;-9.21;100.00;103942.28;5056369;28;20136;-71
2024/01/08 08:35:34;;;;;;;14.68;9.00;;;;;;;-9.20;100.00;103911.88;5056466;28;20036;-70
2024/01/08 08:37:59;;;;;;;17.13;8.65;;;;;;;-9.16;100.00;103908.41;5057082;28;20501;-70
2024/01/08 08:40:25;;;;;;;15.30;7.45;;;;;;;-8.92;100.00;103936.31;5073396;28;20285;-70
2024/01/08 08:42:50;;;;;;;13.65;7.25;;;;;;;-9.04;100.00;103914.53;5073521;28;20060;-70
2024/01/08 08:45:19;;;;;;;14.82;8.60;;;;;;;-8.99;100.00;103898.88;5073540;28;20038;-71
2024/01/08 08:47:44;;;;;;;13.32;8.52;;;;;;;-8.70;100.00;103924.16;5056973;28;20028;-69
2024/01/08 08:50:12;;;;;;;16.38;8.27;;;;;;;-8.63;100.00;103932.00;5056830;28;20723;-71
2024/01/08 08:52:37;;;;;;;13.63;8.32;;;;;;;-8.53;100.00;103938.97;5074087;28;20059;-72
2024/01/08 08:55:04;;;;;;;10.98;7.00;;;;;;;-8.56;100.00;103927.66;5056192;28;20029;-70
2024/01/08 08:57:30;;;;;;;12.73;7.75;;;;;;;-8.41;100.00;103937.22;5056234;28;20056;-71
2024/01/08 08:59:56;;;;;;;17.88;7.82;;;;;;;-8.36;100.00;103928.50;5074225;28;20047;-71
2024/01/08 09:02:22;;;;;;;26.27;14.95;;;;;;;-8.33;100.00;103943.28;5072215;28;20483;-71
2024/01/08 09:04:49;;;;;;;25.30;16.17;;;;;;;-8.36;100.00;103949.38;5074170;28;20085;-72
2024/01/08 09:07:16;;;;;;;15.65;9.60;;;;;;;-8.30;100.00;103952.00;5074205;28;20463;-72
2024/01/08 09:09:42;;;;;;;15.45;8.20;;;;;;;-8.44;100.00;103917.22;5079827;28;20032;-71
2024/01/08 09:12:08;;;;;;;11.52;6.65;;;;;;;-8.37;100.00;103926.75;5078647;28;20029;-71
2024/01/08 09:14:33;;;;;;;14.13;8.20;;;;;;;-8.15;100.00;103963.31;5062479;28;20036;-72
2024/01/08 09:16:58;;;;;;;13.13;7.15;;;;;;;-8.11;100.00;103967.66;5075974;28;20371;-71
2024/01/08 09:19:24;;;;;;;14.75;7.57;;;;;;;-8.10;100.00;103970.28;5072330;28;20136;-71
2024/01/08 09:21:49;;;;;;;14.85;7.88;;;;;;;-8.18;100.00;103948.50;5072983;28;20039;-71
2024/01/08 09:24:15;;;;;;;16.83;7.90;;;;;;;-8.08;100.00;103968.56;5072774;28;20040;-71
2024/01/08 09:26:41;;;;;;;15.88;8.60;;;;;;;-7.96;100.00;103964.16;5072415;28;20035;-71
2024/01/08 09:29:08;;;;;;;15.63;8.00;;;;;;;-8.06;100.00;103924.97;5055957;28;20123;-71
2024/01/08 09:31:33;;;;;;;14.52;7.43;;;;;;;-7.93;100.00;103930.19;5039800;28;20078;-70
2024/01/08 09:34:00;;;;;;;11.35;7.10;;;;;;;-7.68;100.00;103962.38;5055346;28;20053;-71
2024/01/08 09:36:26;;;;;;;15.77;6.88;;;;;;;-7.60;100.00;103960.63;5072159;28;20056;-70
2024/01/08 09:38:52;;;;;;;13.15;7.20;;;;;;;-7.55;100.00;103964.06;5056037;28;20033;-70
2024/01/08 09:41:17;;;;;;;13.65;7.53;;;;;;;-7.47;100.00;103964.06;5056305;28;20082;-70
2024/01/08 09:43:46;;;;;;;13.50;7.32;;;;;;;-7.41;100.00;103971.91;5073101;28;20504;-70
2024/01/08 09:46:15;;;;;;;13.07;7.65;;;;;;;-7.44;100.00;103958.81;5056551;28;20032;-70
2024/01/08 09:48:40;;;;;;;13.93;7.85;;;;;;;-7.49;100.00;103937.03;5072660;28;20437;-70
2024/01/08 09:51:07;;;;;;;18.13;11.77;;;;;;;-7.33;100.00;103964.88;5072101;28;20365;-71
2024/01/08 09:53:33;;;;;;;15.45;9.18;;;;;;;-7.35;100.00;103969.22;5088827;28;20028;-70
2024/01/08 09:55:59;;;;;;;15.30;9.85;;;;;;;-7.25;100.00;103965.72;5054583;28;20040;-70
2024/01/08 09:58:26;;;;;;;14.23;9.25;;;;;;;-7.19;100.00;103959.59;5072731;28;20036;-70
2024/01/08 10:00:52;;;;;;;18.42;9.43;;;;;;;-7.21;100.00;103946.53;5072712;28;20068;-70
2024/01/08 10:03:18;;;;;;;13.82;8.38;;;;;;;-7.02;100.00;103967.34;5071409;28;20020;-70
2024/01/08 10:05:43;;;;;;;13.02;7.65;;;;;;;-7.21;100.00;103930.81;5071322;28;20035;-70
2024/01/08 10:08:09;;;;;;;12.60;7.57;;;;;;;-7.00;100.00;103952.53;5072552;28;20021;-70
2024/01/08 10:10:35;;;;;;;11.75;7.28;;;;;;;-6.85;100.00;103965.53;5071362;28;20024;-70
2024/01/08 10:13:01;;;;;;;11.43;6.65;;;;;;;-6.77;100.00;103957.63;5070978;28;20035;-70
2024/01/08 10:15:27;;;;;;;11.32;6.75;;;;;;;-6.73;100.00;103959.34;5070365;28;20024;-70
2024/01/08 10:17:55;;;;;;;12.95;6.18;;;;;;;-6.87;100.00;103928.00;5071277;28;20052;-70
2024/01/08 10:20:20;;;;;;;9.68;6.00;;;;;;;-6.63;100.00;103940.94;5072505;28;20500;-70
2024/01/08 10:22:47;;;;;;;10.70;6.53;;;;;;;-6.58;100.00;103940.06;5072773;28;20067;-71
2024/01/08 10:25:23;;;;;;;17.08;9.48;;;;;;;-6.42;100.00;103954.78;5072947;28;20024;-70
2024/01/08 10:27:49;;;;;;;15.63;8.65;;;;;;;-6.52;100.00;103926.88;5071153;28;20028;-70
2024/01/08 10:30:16;;;;;;;31.83;15.18;;;;;;;-6.38;100.00;103951.25;5054684;28;20034;-70
2024/01/08 10:32:41;;;;;;;25.77;16.83;;;;;;;-6.38;100.00;103951.25;5054317;28;20036;-69
2024/01/08 10:35:08;;;;;;;24.85;15.52;;;;;;;-6.55;100.00;103903.38;5071148;28;20033;-70
2024/01/08 10:37:35;;;;;;;18.13;9.52;;;;;;;-6.26;100.00;103939.78;5071239;28;20094;-70
2024/01/08 10:40:04;;;;;;;13.88;8.80;;;;;;;-6.13;100.00;103941.41;5074002;28;20033;-70
2024/01/08 10:42:29;;;;;;;14.23;8.52;;;;;;;-6.05;100.00;103938.72;5076276;28;20537;-71
2024/01/08 10:44:55;;;;;;;15.82;8.68;;;;;;;-6.09;100.00;103913.41;5077714;28;20048;-70
2024/01/08 10:47:23;;;;;;;16.45;9.77;;;;;;;-6.01;100.00;103933.44;5072183;28;20028;-70
2024/01/08 10:49:56;;;;;;;17.10;9.02;;;;;;;-5.98;100.00;103930.78;5053708;28;20032;-70
2024/01/08 10:52:29;;;;;;;19.23;10.45;;;;;;;-5.98;100.00;103920.28;5071889;28;20039;-70
2024/01/08 10:54:58;;;;;;;15.10;8.20;;;;;;;-5.90;100.00;103928.91;5072381;28;20028;-70
2024/01/08 10:57:39;;;;;;;14.32;8.60;;;;;;;-5.86;100.00;103935.00;5070422;28;20028;-70
2024/01/08 11:00:12;;;;;;;16.48;8.48;;;;;;;-5.82;100.00;103935.84;5070702;28;20024;-70
2024/01/08 11:02:40;;;;;;;12.30;7.13;;;;;;;-6.00;100.00;103905.47;5055237;28;20363;-70